Time;durP1;ratioP1;P1;durP2;ratioP2;P2;SDS_P1;SDS_P2;PMS_P1;PMS_P2;Temp;Humidity;BMP_temperature;BMP_pressure;BME280_temperature;BME280_humidity;BME280_pressure;Samples;Min_cycle;Max_cycle;Signal;HPM_P1;HPM_P2
2023/04/21 00:00:58;;;;;;;0.70;0.30;;;9.30;99.90;;;;;;5053558;28;20037;-73
2023/04/21 00:03:26;;;;;;;1.70;0.60;;;9.40;99.90;;;;;;5053424;28;20076;-72
2023/04/21 00:05:55;;;;;;;2.90;0.60;;;9.20;99.90;;;;;;5053662;28;20041;-72
2023/04/21 00:08:20;;;;;;;0.80;0.20;;;9.30;99.90;;;;;;5052478;28;20102;-73
2023/04/21 00:10:46;;;;;;;1.45;0.40;;;9.30;99.90;;;;;;5053577;28;20028;-72
2023/04/21 00:13:12;;;;;;;0.93;0.30;;;9.20;99.90;;;;;;5053179;28;20032;-72
2023/04/21 00:15:38;;;;;;;1.88;0.43;;;9.10;99.90;;;;;;5053378;28;20037;-72
2023/04/21 00:18:05;;;;;;;0.10;0.10;;;9.10;99.90;;;;;;5052862;28;20047;-72
2023/04/21 00:20:30;;;;;;;3.70;0.80;;;9.10;99.90;;;;;;5053289;28;20040;-72
2023/04/21 00:22:57;;;;;;;0.20;0.20;;;9.10;99.90;;;;;;5052758;28;20032;-72
2023/04/21 00:25:23;;;;;;;0.75;0.30;;;9.10;99.90;;;;;;5053079;28;20032;-72
2023/04/21 00:27:49;;;;;;;1.05;0.20;;;9.10;99.90;;;;;;5053239;28;20037;-73
2023/04/21 00:30:15;;;;;;;1.23;0.40;;;9.20;99.90;;;;;;5053211;28;20025;-72
2023/04/21 00:32:41;;;;;;;0.82;0.40;;;9.20;99.90;;;;;;5053251;28;20112;-72
2023/04/21 00:35:07;;;;;;;1.98;0.70;;;9.40;99.90;;;;;;5052921;28;20033;-72
2023/04/21 00:37:33;;;;;;;1.00;0.30;;;9.50;99.90;;;;;;5052237;28;20029;-72
2023/04/21 00:39:58;;;;;;;0.73;0.30;;;9.30;99.90;;;;;;5052178;28;20025;-72
2023/04/21 00:42:24;;;;;;;0.43;0.30;;;9.10;99.90;;;;;;5052753;28;20083;-72
2023/04/21 00:44:51;;;;;;;1.55;0.50;;;9.00;99.90;;;;;;5052729;28;20540;-72
2023/04/21 00:47:17;;;;;;;0.47;0.28;;;8.90;99.90;;;;;;5052818;28;20024;-72
2023/04/21 00:49:44;;;;;;;0.55;0.20;;;9.10;99.90;;;;;;5052664;28;20056;-72
2023/04/21 00:52:10;;;;;;;1.45;0.50;;;9.20;99.90;;;;;;5052340;28;20045;-72
2023/04/21 00:54:37;;;;;;;2.80;1.00;;;9.30;99.90;;;;;;5052574;28;20426;-72
2023/04/21 00:57:03;;;;;;;5.18;1.38;;;9.50;99.90;;;;;;5052912;28;20029;-72
2023/04/21 00:59:29;;;;;;;5.20;2.60;;;9.70;99.90;;;;;;5052873;28;20036;-72
2023/04/21 01:01:55;;;;;;;3.92;2.30;;;9.60;99.90;;;;;;5052151;28;20098;-72
2023/04/21 01:04:21;;;;;;;3.72;2.08;;;9.60;99.90;;;;;;5052228;28;20072;-72
2023/04/21 01:06:47;;;;;;;1.67;1.00;;;9.70;99.90;;;;;;5052885;28;20488;-72
2023/04/21 01:09:13;;;;;;;2.10;0.60;;;9.70;99.90;;;;;;5052089;28;20057;-72
2023/04/21 01:11:39;;;;;;;1.40;0.55;;;9.30;99.90;;;;;;5052443;28;20032;-72
2023/04/21 01:14:05;;;;;;;1.80;0.68;;;9.30;99.90;;;;;;5052569;28;20076;-72
2023/04/21 01:16:32;;;;;;;3.03;0.50;;;9.40;99.90;;;;;;5052738;28;20033;-72
2023/04/21 01:18:59;;;;;;;1.40;0.40;;;9.40;99.90;;;;;;5052304;28;20027;-72
2023/04/21 01:21:26;;;;;;;1.23;0.38;;;9.40;99.90;;;;;;5055000;28;20392;-73
2023/04/21 01:23:52;;;;;;;1.90;0.80;;;9.30;99.90;;;;;;5055788;28;20029;-73
2023/04/21 01:26:21;;;;;;;1.77;0.55;;;9.40;99.90;;;;;;5056613;28;20032;-73
2023/04/21 01:28:48;;;;;;;1.05;0.45;;;9.30;99.90;;;;;;5056487;28;20031;-73
2023/04/21 01:31:17;;;;;;;2.70;0.70;;;9.40;99.90;;;;;;5056384;28;20040;-72
2023/04/21 01:33:43;;;;;;;1.73;0.88;;;9.40;99.90;;;;;;5056217;28;20026;-72
2023/04/21 01:36:09;;;;;;;2.88;1.20;;;9.40;99.90;;;;;;5056450;28;20099;-72
2023/04/21 01:38:39;;;;;;;2.65;1.63;;;9.50;99.90;;;;;;5055559;28;20036;-72
2023/04/21 01:41:06;;;;;;;2.33;1.48;;;9.50;99.90;;;;;;5056030;28;20040;-72
2023/04/21 01:43:31;;;;;;;3.03;1.38;;;9.60;99.90;;;;;;5056011;28;20032;-72
2023/04/21 01:45:57;;;;;;;1.33;0.70;;;9.50;99.90;;;;;;5056284;28;20029;-72
2023/04/21 01:48:23;;;;;;;0.80;0.40;;;9.40;99.90;;;;;;5055018;28;20068;-72
2023/04/21 01:50:49;;;;;;;1.73;0.50;;;9.50;99.90;;;;;;5055325;28;20032;-72
2023/04/21 01:53:14;;;;;;;1.55;0.70;;;9.50;99.90;;;;;;5054138;28;20025;-72
2023/04/21 01:55:40;;;;;;;0.85;0.47;;;9.50;99.90;;;;;;5055335;28;20451;-72
2023/04/21 01:58:06;;;;;;;1.02;0.35;;;9.40;99.90;;;;;;5054865;28;20070;-72
2023/04/21 02:00:31;;;;;;;1.42;0.55;;;9.40;99.90;;;;;;5055780;28;20029;-72
2023/04/21 02:02:57;;;;;;;1.20;0.50;;;9.40;99.90;;;;;;5055028;28;20118;-72
2023/04/21 02:05:23;;;;;;;1.05;0.60;;;9.40;99.90;;;;;;5055706;28;20394;-72
2023/04/21 02:07:48;;;;;;;2.67;0.65;;;9.20;99.90;;;;;;5055715;28;20440;-72
2023/04/21 02:10:15;;;;;;;1.08;0.43;;;9.40;99.90;;;;;;5055674;28;20029;-72
2023/04/21 02:12:40;;;;;;;1.08;0.45;;;9.40;99.90;;;;;;5055877;28;20429;-72
2023/04/21 02:15:06;;;;;;;1.52;0.50;;;9.40;99.90;;;;;;5055489;28;20025;-72
2023/04/21 02:17:32;;;;;;;0.75;0.63;;;9.50;99.90;;;;;;5054885;28;20025;-72
2023/04/21 02:19:58;;;;;;;0.93;0.47;;;9.30;99.90;;;;;;5053171;28;20085;-72
2023/04/21 02:22:24;;;;;;;1.55;0.70;;;9.30;99.90;;;;;;5043196;28;20068;-72
2023/04/21 02:24:50;;;;;;;1.48;0.73;;;9.20;99.90;;;;;;5055448;28;20055;-72
2023/04/21 02:27:15;;;;;;;0.73;0.30;;;9.30;99.90;;;;;;5055270;28;20028;-72
2023/04/21 02:29:41;;;;;;;1.05;0.35;;;9.40;99.90;;;;;;5055004;28;20474;-72
2023/04/21 02:32:07;;;;;;;2.03;0.63;;;9.60;99.90;;;;;;5053984;28;20108;-72
2023/04/21 02:34:33;;;;;;;0.55;0.30;;;9.60;99.90;;;;;;5055159;28;20055;-72
2023/04/21 02:36:59;;;;;;;1.30;0.43;;;9.40;99.90;;;;;;5055390;28;20056;-72
2023/04/21 02:39:25;;;;;;;2.90;1.15;;;9.40;99.90;;;;;;5053452;28;20040;-72
2023/04/21 02:41:51;;;;;;;0.63;0.20;;;9.40;99.90;;;;;;5054062;28;20033;-72
2023/04/21 02:44:16;;;;;;;0.85;0.30;;;9.30;99.90;;;;;;5055053;28;20094;-72
2023/04/21 02:46:42;;;;;;;0.75;0.30;;;9.20;99.90;;;;;;5054593;28;20486;-72
2023/04/21 02:49:09;;;;;;;1.27;0.57;;;9.20;99.90;;;;;;5055087;28;20368;-72
2023/04/21 02:51:35;;;;;;;1.33;0.68;;;9.20;99.90;;;;;;5055191;28;20032;-72
2023/04/21 02:54:00;;;;;;;1.17;0.50;;;9.20;99.90;;;;;;5054857;28;20025;-72
2023/04/21 02:56:26;;;;;;;0.68;0.30;;;9.30;99.90;;;;;;5052733;28;20033;-72
2023/04/21 02:58:51;;;;;;;1.15;0.55;;;9.30;99.90;;;;;;5047615;28;20038;-72
2023/04/21 03:01:17;;;;;;;2.28;0.68;;;9.30;99.90;;;;;;5034470;28;20022;-70
2023/04/21 03:03:43;;;;;;;1.00;0.32;;;9.20;99.90;;;;;;5030481;28;20034;-72
2023/04/21 03:06:08;;;;;;;0.75;0.50;;;9.10;99.90;;;;;;5039959;28;20060;-71
2023/04/21 03:08:34;;;;;;;1.23;0.50;;;9.10;99.90;;;;;;5049109;28;20056;-71
2023/04/21 03:11:00;;;;;;;2.95;0.55;;;9.10;99.90;;;;;;5049814;28;20104;-71
2023/04/21 03:13:26;;;;;;;1.17;0.50;;;9.10;99.90;;;;;;5049674;28;20477;-71
2023/04/21 03:15:51;;;;;;;3.50;0.70;;;9.00;99.90;;;;;;5048870;28;20025;-71
2023/04/21 03:18:17;;;;;;;0.98;0.60;;;9.00;99.90;;;;;;5042651;28;20035;-71
2023/04/21 03:20:43;;;;;;;0.77;0.60;;;9.10;99.90;;;;;;5046827;28;20068;-72
2023/04/21 03:23:09;;;;;;;0.45;0.25;;;9.10;99.90;;;;;;5048426;28;20029;-71
2023/04/21 03:25:34;;;;;;;1.65;0.65;;;9.20;99.90;;;;;;5048606;28;20029;-71
2023/04/21 03:28:00;;;;;;;1.92;0.52;;;9.20;99.90;;;;;;5049082;28;20036;-70
2023/04/21 03:30:26;;;;;;;1.42;0.70;;;9.30;99.90;;;;;;5049355;28;20043;-71
2023/04/21 03:32:54;;;;;;;1.67;0.90;;;9.20;99.90;;;;;;5049557;28;20029;-71
2023/04/21 03:35:20;;;;;;;1.67;0.70;;;9.30;99.90;;;;;;5049435;28;20040;-71
2023/04/21 03:37:45;;;;;;;1.70;0.68;;;9.40;99.90;;;;;;5048334;28;20041;-71
2023/04/21 03:40:11;;;;;;;1.48;0.82;;;9.40;99.90;;;;;;5049677;28;20108;-71
2023/04/21 03:42:37;;;;;;;2.13;0.60;;;9.40;99.90;;;;;;5048593;28;20112;-71
2023/04/21 03:45:07;;;;;;;2.88;0.75;;;9.40;99.90;;;;;;5049280;28;20051;-71
2023/04/21 03:47:33;;;;;;;2.03;0.90;;;9.30;99.90;;;;;;5040608;28;20026;-73
2023/04/21 03:49:59;;;;;;;1.83;0.90;;;9.30;99.90;;;;;;5029285;28;20029;-73
2023/04/21 03:52:25;;;;;;;2.80;0.90;;;9.20;99.90;;;;;;5029272;28;20374;-73
2023/04/21 03:54:50;;;;;;;1.75;0.68;;;9.10;99.90;;;;;;5032266;28;20529;-73
2023/04/21 03:57:16;;;;;;;0.90;0.50;;;9.20;99.90;;;;;;5048126;28;20067;-73
2023/04/21 03:59:42;;;;;;;2.85;0.88;;;9.30;99.90;;;;;;5045747;28;20033;-73
2023/04/21 04:02:08;;;;;;;1.55;0.70;;;9.30;99.90;;;;;;5045732;28;20029;-73
2023/04/21 04:04:34;;;;;;;1.83;1.08;;;9.30;99.90;;;;;;5046292;28;20444;-73
2023/04/21 04:06:59;;;;;;;1.50;0.75;;;9.30;99.90;;;;;;5043277;28;20071;-73
2023/04/21 04:09:25;;;;;;;1.25;0.70;;;9.40;99.90;;;;;;5043925;28;20041;-73
2023/04/21 04:11:51;;;;;;;1.27;0.57;;;9.40;99.90;;;;;;5045411;28;20040;-73
2023/04/21 04:14:16;;;;;;;1.08;0.60;;;9.30;99.90;;;;;;5046034;28;20056;-73
2023/04/21 04:16:42;;;;;;;1.77;0.70;;;9.30;99.90;;;;;;5045565;28;20029;-73
2023/04/21 04:19:08;;;;;;;1.17;0.60;;;9.30;99.90;;;;;;5045593;28;20025;-73
2023/04/21 04:21:34;;;;;;;1.63;0.77;;;9.40;99.90;;;;;;5045187;28;20045;-74
2023/04/21 04:24:01;;;;;;;1.60;0.82;;;9.30;99.90;;;;;;5045745;28;20025;-75
2023/04/21 04:26:27;;;;;;;1.00;0.50;;;9.30;99.90;;;;;;5045276;28;20033;-73
2023/04/21 04:28:55;;;;;;;2.70;0.93;;;9.40;99.90;;;;;;5037019;28;20173;-73
2023/04/21 04:31:24;;;;;;;1.90;0.70;;;9.50;99.90;;;;;;5025861;28;20029;-73
2023/04/21 04:33:50;;;;;;;2.78;1.02;;;9.60;99.90;;;;;;5025066;28;20037;-73
2023/04/21 04:36:15;;;;;;;2.95;1.23;;;9.50;99.90;;;;;;5043207;28;20033;-73
2023/04/21 04:38:41;;;;;;;4.30;1.30;;;9.50;99.90;;;;;;5045402;28;20029;-73
2023/04/21 04:41:07;;;;;;;3.40;1.08;;;9.50;99.90;;;;;;5045601;28;20037;-73
2023/04/21 04:43:35;;;;;;;3.15;1.52;;;9.40;99.90;;;;;;5045388;28;20049;-75
2023/04/21 04:46:02;;;;;;;4.43;2.53;;;9.40;99.90;;;;;;5045249;28;20029;-73
2023/04/21 04:48:28;;;;;;;4.57;2.97;;;9.40;99.90;;;;;;5045542;28;20491;-73
2023/04/21 04:50:53;;;;;;;4.25;2.85;;;9.30;99.90;;;;;;5045310;28;20028;-75
2023/04/21 04:53:19;;;;;;;4.05;2.50;;;9.30;99.90;;;;;;5045678;28;20032;-73
2023/04/21 04:55:46;;;;;;;3.67;2.25;;;9.30;99.90;;;;;;5044022;28;20033;-73
2023/04/21 04:58:12;;;;;;;2.80;1.48;;;9.30;99.90;;;;;;5044701;28;20391;-73
2023/04/21 05:00:37;;;;;;;3.28;1.80;;;9.50;99.90;;;;;;5044732;28;20108;-73
2023/04/21 05:03:03;;;;;;;2.63;1.30;;;9.60;99.90;;;;;;5044766;28;20116;-73
2023/04/21 05:05:29;;;;;;;2.67;1.52;;;9.60;99.90;;;;;;5045657;28;20072;-73
2023/04/21 05:07:56;;;;;;;2.42;1.30;;;9.60;99.90;;;;;;5048397;28;20667;-74
2023/04/21 05:10:22;;;;;;;2.38;1.27;;;9.50;99.90;;;;;;5047154;28;20025;-72
2023/04/21 05:12:47;;;;;;;2.38;1.13;;;9.60;99.90;;;;;;5049075;28;20548;-72
2023/04/21 05:15:13;;;;;;;3.28;1.25;;;9.70;99.90;;;;;;5048422;28;20025;-73
2023/04/21 05:17:39;;;;;;;3.13;1.45;;;9.80;99.90;;;;;;5047980;28;20029;-70
2023/04/21 05:20:06;;;;;;;1.48;0.77;;;9.70;99.90;;;;;;5047940;28;20108;-73
2023/04/21 05:22:38;;;;;;;1.75;1.13;;;9.70;99.90;;;;;;5048215;28;20474;-72
2023/04/21 05:25:04;;;;;;;2.15;1.05;;;9.50;99.90;;;;;;5047460;28;20052;-73
2023/04/21 05:27:30;;;;;;;1.95;1.25;;;9.60;99.90;;;;;;5045591;28;20499;-74
2023/04/21 05:29:56;;;;;;;2.90;1.00;;;9.60;99.90;;;;;;5043375;28;20039;-73
2023/04/21 05:32:22;;;;;;;9.32;3.83;;;9.80;99.90;;;;;;5042813;28;20029;-73
2023/04/21 05:34:47;;;;;;;8.13;4.65;;;9.90;99.90;;;;;;5043945;28;20502;-74
2023/04/21 05:37:13;;;;;;;10.13;9.27;;;10.20;99.90;;;;;;5044995;28;20067;-75
2023/04/21 05:39:38;;;;;;;6.05;4.10;;;10.20;99.90;;;;;;5044461;28;20032;-76
2023/04/21 05:42:05;;;;;;;4.63;3.35;;;10.10;99.90;;;;;;5047213;28;20040;-75
2023/04/21 05:44:31;;;;;;;6.63;3.40;;;10.00;99.90;;;;;;5047579;28;20087;-75
2023/04/21 05:46:56;;;;;;;4.47;2.78;;;10.00;99.90;;;;;;5048027;28;20491;-75
2023/04/21 05:49:22;;;;;;;6.05;2.42;;;10.00;99.90;;;;;;5046010;28;20383;-74
2023/04/21 05:51:48;;;;;;;3.85;2.35;;;10.20;99.90;;;;;;5043844;28;20029;-76
2023/04/21 05:54:13;;;;;;;3.70;2.33;;;10.00;99.90;;;;;;5046529;28;20033;-75
2023/04/21 05:56:39;;;;;;;3.70;2.20;;;10.10;99.90;;;;;;5046918;28;20033;-75
2023/04/21 05:59:05;;;;;;;4.25;2.33;;;10.20;99.90;;;;;;5047961;28;20071;-74
2023/04/21 06:01:32;;;;;;;3.95;2.28;;;10.20;99.90;;;;;;5046814;28;20032;-75
2023/04/21 06:03:57;;;;;;;5.35;3.25;;;10.20;99.90;;;;;;5045079;28;20112;-75
2023/04/21 06:06:26;;;;;;;5.00;2.90;;;10.30;99.90;;;;;;5045749;28;20075;-75
2023/04/21 06:08:52;;;;;;;5.35;3.00;;;10.30;99.90;;;;;;5048413;28;20132;-75
2023/04/21 06:11:17;;;;;;;5.95;3.88;;;10.30;99.90;;;;;;5048818;28;20159;-75
2023/04/21 06:13:43;;;;;;;6.88;3.58;;;10.40;99.90;;;;;;5048586;28;20025;-75
2023/04/21 06:16:09;;;;;;;6.13;3.30;;;10.40;99.90;;;;;;5048195;28;20133;-74
2023/04/21 06:18:35;;;;;;;4.88;3.10;;;10.40;99.90;;;;;;5048257;28;20356;-75
2023/04/21 06:21:01;;;;;;;5.90;3.67;;;10.40;99.90;;;;;;5046283;28;20063;-75
2023/04/21 06:23:27;;;;;;;4.53;3.20;;;10.50;99.90;;;;;;5047844;28;20387;-74
2023/04/21 06:26:00;;;;;;;5.68;3.58;;;10.10;99.90;;;;;;5048732;28;20075;-74
2023/04/21 06:28:25;;;;;;;6.50;3.88;;;10.20;99.90;;;;;;5050135;28;20021;-74
2023/04/21 06:30:51;;;;;;;4.97;3.10;;;10.20;99.90;;;;;;5048688;28;20029;-73
2023/04/21 06:33:17;;;;;;;6.72;3.25;;;10.20;99.90;;;;;;5048026;28;20033;-74
2023/04/21 06:35:42;;;;;;;7.45;3.05;;;10.50;99.90;;;;;;5048158;28;20029;-74
2023/04/21 06:38:08;;;;;;;4.32;2.75;;;10.60;99.90;;;;;;5047984;28;20036;-74
2023/04/21 06:40:34;;;;;;;9.15;2.97;;;10.70;99.90;;;;;;5047072;28;20033;-74
2023/04/21 06:43:00;;;;;;;5.53;2.88;;;10.60;99.90;;;;;;5047928;28;20060;-75
2023/04/21 06:45:25;;;;;;;4.55;2.95;;;10.60;99.90;;;;;;5047706;28;20460;-73
2023/04/21 06:47:51;;;;;;;5.18;3.10;;;10.70;99.90;;;;;;5047786;28;20021;-74
2023/04/21 06:50:16;;;;;;;4.63;2.95;;;10.90;99.90;;;;;;5047323;28;20037;-74
2023/04/21 06:52:42;;;;;;;5.45;3.28;;;11.00;99.90;;;;;;5047709;28;20097;-74
2023/04/21 06:55:08;;;;;;;4.95;3.00;;;11.10;99.90;;;;;;5047855;28;20037;-74
2023/04/21 06:57:34;;;;;;;4.53;2.63;;;11.30;99.90;;;;;;5047739;28;20064;-75
2023/04/21 06:59:59;;;;;;;3.88;2.50;;;11.80;99.90;;;;;;5046680;28;20032;-74
2023/04/21 07:02:25;;;;;;;4.82;2.92;;;11.60;99.90;;;;;;5047827;28;20052;-74
2023/04/21 07:04:51;;;;;;;5.22;2.72;;;12.40;99.90;;;;;;5047406;28;20032;-75
2023/04/21 07:07:16;;;;;;;4.50;2.92;;;12.00;99.90;;;;;;5047557;28;20029;-73
2023/04/21 07:09:46;;;;;;;4.97;3.28;;;11.60;99.90;;;;;;5047195;28;20048;-75
2023/04/21 07:12:11;;;;;;;4.30;2.42;;;12.80;99.90;;;;;;5047287;28;20506;-74
2023/04/21 07:14:37;;;;;;;4.22;1.88;;;14.90;99.90;;;;;;5047613;28;20069;-74
2023/04/21 07:17:02;;;;;;;6.07;1.77;;;15.00;99.90;;;;;;5046774;28;20024;-75
2023/04/21 07:19:28;;;;;;;2.15;0.93;;;15.10;99.90;;;;;;5047009;28;20044;-74
2023/04/21 07:21:54;;;;;;;2.47;0.73;;;14.20;99.90;;;;;;5047416;28;20025;-74
2023/04/21 07:24:19;;;;;;;1.35;0.80;;;13.40;99.90;;;;;;5047062;28;20041;-74
2023/04/21 07:26:45;;;;;;;1.70;0.90;;;12.70;99.90;;;;;;5043047;28;20029;-74
2023/04/21 07:29:10;;;;;;;5.88;2.60;;;12.70;99.90;;;;;;5047021;28;20028;-74
2023/04/21 07:31:36;;;;;;;5.10;2.67;;;12.40;99.90;;;;;;5046846;28;20084;-74
2023/04/21 07:34:02;;;;;;;5.63;3.05;;;12.20;99.90;;;;;;5046744;28;20052;-74
2023/04/21 07:36:27;;;;;;;4.40;2.90;;;11.90;99.90;;;;;;5047015;28;20594;-74
2023/04/21 07:38:53;;;;;;;4.20;3.05;;;11.60;99.90;;;;;;5046863;28;20029;-74
2023/04/21 07:41:19;;;;;;;5.75;3.10;;;11.60;99.90;;;;;;5046957;28;20037;-74
2023/04/21 07:43:45;;;;;;;5.43;3.75;;;11.50;99.90;;;;;;5046792;28;20021;-74
2023/04/21 07:46:12;;;;;;;5.68;3.00;;;11.40;99.90;;;;;;5046871;28;20118;-73
2023/04/21 07:48:38;;;;;;;5.28;3.22;;;11.50;99.90;;;;;;5046710;28;20056;-73
2023/04/21 07:51:04;;;;;;;9.70;3.55;;;11.60;99.90;;;;;;5047151;28;20036;-74
2023/04/21 07:53:30;;;;;;;6.10;2.45;;;11.50;99.90;;;;;;5046909;28;20028;-74
2023/04/21 07:55:55;;;;;;;5.20;3.00;;;11.50;99.90;;;;;;5044805;28;20033;-74
2023/04/21 07:58:21;;;;;;;4.80;3.00;;;11.50;99.90;;;;;;5047008;28;20021;-74
2023/04/21 08:00:47;;;;;;;4.90;3.05;;;11.50;99.90;;;;;;5047095;28;20379;-73
2023/04/21 08:03:13;;;;;;;5.40;2.63;;;11.60;99.90;;;;;;5046379;28;20151;-74
2023/04/21 08:05:38;;;;;;;4.07;2.53;;;11.50;99.90;;;;;;5046496;28;20055;-74
2023/04/21 08:08:04;;;;;;;6.38;2.85;;;11.40;99.90;;;;;;5046343;28;20060;-73
2023/04/21 08:10:30;;;;;;;4.55;2.92;;;11.50;99.90;;;;;;5044896;28;20103;-75
2023/04/21 08:12:57;;;;;;;5.20;2.67;;;11.50;99.90;;;;;;5045345;28;20057;-74
2023/04/21 08:15:23;;;;;;;4.38;2.90;;;11.60;99.90;;;;;;5046642;28;20048;-74
2023/04/21 08:17:48;;;;;;;4.05;2.67;;;11.60;99.90;;;;;;5046676;28;20059;-74
2023/04/21 08:20:14;;;;;;;4.40;2.47;;;11.60;99.90;;;;;;5048296;28;20025;-74
2023/04/21 08:22:40;;;;;;;3.33;2.03;;;11.70;99.90;;;;;;5049536;28;20052;-74
2023/04/21 08:25:06;;;;;;;4.85;2.70;;;11.90;99.90;;;;;;5047932;28;20103;-74
2023/04/21 08:27:32;;;;;;;4.07;2.70;;;11.90;99.90;;;;;;5049092;28;20029;-75
2023/04/21 08:29:58;;;;;;;3.67;2.17;;;12.00;99.90;;;;;;5048632;28;20028;-73
2023/04/21 08:32:25;;;;;;;4.03;2.47;;;12.00;99.90;;;;;;5048525;28;20035;-74
2023/04/21 08:34:52;;;;;;;3.40;2.15;;;12.10;99.90;;;;;;5048655;28;20610;-74
2023/04/21 08:37:18;;;;;;;3.65;2.25;;;12.10;99.90;;;;;;5049130;28;20025;-74
2023/04/21 08:39:44;;;;;;;4.00;2.20;;;12.10;99.90;;;;;;5049182;28;20087;-74
2023/04/21 08:42:13;;;;;;;4.45;2.38;;;12.10;99.90;;;;;;5048833;28;20455;-74
2023/04/21 08:44:40;;;;;;;3.88;1.85;;;12.30;99.90;;;;;;5048847;28;20501;-74
2023/04/21 08:47:10;;;;;;;3.40;2.10;;;12.20;99.90;;;;;;5048665;28;20025;-74
2023/04/21 08:49:37;;;;;;;4.70;2.00;;;12.30;99.90;;;;;;5048654;28;20053;-74
2023/04/21 08:52:03;;;;;;;3.40;2.08;;;12.40;99.90;;;;;;5048946;28;20059;-74
2023/04/21 08:54:29;;;;;;;3.95;1.80;;;12.50;99.90;;;;;;5048771;28;20090;-74
2023/04/21 08:56:56;;;;;;;3.97;2.22;;;12.60;99.90;;;;;;5047211;28;20037;-74
2023/04/21 08:59:21;;;;;;;4.47;2.05;;;12.70;99.90;;;;;;5048921;28;20036;-74
2023/04/21 09:02:15;;;;;;;3.40;1.92;;;12.90;99.90;;;;;;5048552;28;20025;-74
2023/04/21 09:04:45;;;;;;;2.90;1.85;;;12.90;99.90;;;;;;5047489;28;20044;-74
2023/04/21 09:07:28;;;;;;;3.28;1.70;;;12.90;99.90;;;;;;5048649;28;20036;-74
2023/04/21 09:09:55;;;;;;;2.72;1.40;;;13.10;99.90;;;;;;5048474;28;20041;-75
2023/04/21 09:12:21;;;;;;;5.53;1.92;;;13.00;99.90;;;;;;5048371;28;20604;-74
2023/04/21 09:14:47;;;;;;;2.85;1.67;;;13.10;99.90;;;;;;5047997;28;20036;-74
2023/04/21 09:17:15;;;;;;;3.13;1.58;;;13.30;99.90;;;;;;5047590;28;20162;-74
2023/04/21 09:19:41;;;;;;;3.20;1.50;;;13.50;99.90;;;;;;5048234;28;20043;-74
2023/04/21 09:22:07;;;;;;;5.28;1.85;;;13.70;99.90;;;;;;5048672;28;20472;-75
2023/04/21 09:24:32;;;;;;;3.45;1.60;;;13.90;99.90;;;;;;5048346;28;20056;-74
2023/04/21 09:27:01;;;;;;;3.35;1.30;;;14.30;99.90;;;;;;5045646;28;20242;-74
2023/04/21 09:29:27;;;;;;;3.58;1.55;;;13.90;99.90;;;;;;5048472;28;20053;-74
2023/04/21 09:31:52;;;;;;;2.95;1.70;;;13.80;99.90;;;;;;5048511;28;20047;-74
2023/04/21 09:34:18;;;;;;;2.30;1.30;;;13.80;99.90;;;;;;5046776;28;20029;-74
2023/04/21 09:36:45;;;;;;;6.60;1.65;;;13.70;99.90;;;;;;5045220;28;20036;-74
2023/04/21 09:39:10;;;;;;;3.58;1.45;;;13.70;99.90;;;;;;5046528;28;20021;-74
2023/04/21 09:41:36;;;;;;;4.55;1.40;;;13.30;99.90;;;;;;5049832;28;20063;-74
2023/04/21 09:44:03;;;;;;;2.95;1.48;;;13.40;99.90;;;;;;5052031;28;20040;-74
2023/04/21 09:46:32;;;;;;;3.00;1.40;;;13.70;99.90;;;;;;5049285;28;20467;-74
2023/04/21 09:49:00;;;;;;;2.08;0.98;;;13.50;99.90;;;;;;5048508;28;20600;-74
2023/04/21 09:51:28;;;;;;;1.48;0.55;;;13.80;99.90;;;;;;5050521;28;20025;-74
2023/04/21 09:53:58;;;;;;;1.45;0.80;;;13.60;99.90;;;;;;5051412;28;20053;-74
2023/04/21 09:56:25;;;;;;;1.33;0.70;;;13.60;99.90;;;;;;5049678;28;20056;-74
2023/04/21 09:58:57;;;;;;;1.85;1.05;;;13.50;99.90;;;;;;5049469;28;20171;-75
2023/04/21 10:01:28;;;;;;;1.23;0.80;;;13.40;99.90;;;;;;5047039;28;20128;-74
2023/04/21 10:03:54;;;;;;;2.90;1.52;;;13.90;99.90;;;;;;5050120;28;20035;-74
2023/04/21 10:06:20;;;;;;;3.08;1.38;;;13.70;99.90;;;;;;5051487;28;20391;-75
2023/04/21 10:08:46;;;;;;;1.98;0.80;;;13.80;99.90;;;;;;5051599;28;20246;-74
2023/04/21 10:11:12;;;;;;;4.35;1.15;;;13.80;99.90;;;;;;5049433;28;20025;-74
2023/04/21 10:13:40;;;;;;;1.77;1.02;;;14.20;99.90;;;;;;5048520;28;20378;-74
2023/04/21 10:16:07;;;;;;;1.65;0.88;;;14.40;99.90;;;;;;5048408;28;20029;-75
2023/04/21 10:18:37;;;;;;;1.92;1.00;;;14.30;99.90;;;;;;5048660;28;20102;-74
2023/04/21 10:21:07;;;;;;;2.17;1.25;;;14.50;99.90;;;;;;5048168;28;20037;-74
2023/04/21 10:23:45;;;;;;;2.80;1.35;;;14.50;99.90;;;;;;5044965;28;20056;-74
2023/04/21 10:26:15;;;;;;;3.17;1.00;;;14.70;99.90;;;;;;5048337;28;20087;-74
2023/04/21 10:29:00;;;;;;;2.42;1.10;;;15.00;99.90;;;;;;5047288;28;20027;-74
2023/04/21 10:31:35;;;;;;;2.38;1.20;;;15.40;99.90;;;;;;5048065;28;20029;-74
2023/04/21 10:34:07;;;;;;;2.63;0.98;;;15.90;99.90;;;;;;5048013;28;20029;-74
2023/04/21 10:36:45;;;;;;;1.88;0.68;;;15.80;99.90;;;;;;5048296;28;20032;-75
2023/04/21 10:39:24;;;;;;;1.95;1.00;;;15.50;99.90;;;;;;5048201;28;20114;-74
2023/04/21 10:41:50;;;;;;;2.20;1.15;;;15.50;99.90;;;;;;5048042;28;20029;-74
2023/04/21 10:44:16;;;;;;;1.50;0.90;;;15.30;99.90;;;;;;5047959;28;20048;-74
2023/04/21 10:46:52;;;;;;;2.30;0.75;;;15.10;99.80;;;;;;5047956;28;20048;-74
2023/04/21 10:49:29;;;;;;;2.25;1.05;;;15.60;99.90;;;;;;5047964;28;20121;-74
2023/04/21 10:51:58;;;;;;;2.53;1.10;;;15.50;99.50;;;;;;5047174;28;20018;-74
2023/04/21 10:54:25;;;;;;;1.40;1.00;;;15.30;99.90;;;;;;5047766;28;20123;-73
2023/04/21 10:56:52;;;;;;;3.90;1.40;;;15.00;99.90;;;;;;5047632;28;20391;-74
2023/04/21 10:59:18;;;;;;;3.22;1.40;;;15.30;99.90;;;;;;5045931;28;20525;-74
2023/04/21 11:01:44;;;;;;;2.13;0.90;;;15.40;99.90;;;;;;5046507;28;20032;-74
2023/04/21 11:04:17;;;;;;;2.10;1.00;;;15.40;99.30;;;;;;5047525;28;20037;-74
2023/04/21 11:07:03;;;;;;;3.55;1.10;;;15.40;98.50;;;;;;5046963;28;20490;-74
2023/04/21 11:09:29;;;;;;;2.83;0.98;;;15.30;99.90;;;;;;5047711;28;20121;-73
2023/04/21 11:11:59;;;;;;;1.90;1.15;;;15.00;99.80;;;;;;5047402;28;20104;-74
2023/04/21 11:14:24;;;;;;;1.95;1.02;;;15.00;99.90;;;;;;5047235;28;20025;-74
2023/04/21 11:16:50;;;;;;;3.30;1.33;;;15.40;99.90;;;;;;5047467;28;20130;-74
2023/04/21 11:19:16;;;;;;;2.13;1.40;;;15.50;99.50;;;;;;5047044;28;20029;-74
2023/04/21 11:21:42;;;;;;;2.42;1.15;;;15.60;99.30;;;;;;5047104;28;20025;-74
2023/04/21 11:24:08;;;;;;;2.88;1.50;;;15.50;99.80;;;;;;5047019;28;20032;-74
2023/04/21 11:26:37;;;;;;;2.30;1.08;;;15.30;99.90;;;;;;5047290;28;20044;-74
2023/04/21 11:29:07;;;;;;;1.48;0.90;;;15.10;99.90;;;;;;5045263;28;20025;-74
2023/04/21 11:31:34;;;;;;;2.53;1.30;;;15.10;99.90;;;;;;5045936;28;20032;-74
2023/04/21 11:34:00;;;;;;;2.33;1.10;;;15.10;99.70;;;;;;5047101;28;20079;-74
2023/04/21 11:36:26;;;;;;;1.73;0.85;;;15.20;99.60;;;;;;5046812;28;20025;-74
2023/04/21 11:38:51;;;;;;;2.13;1.23;;;15.20;99.90;;;;;;5045573;28;20555;-73
2023/04/21 11:41:21;;;;;;;1.17;0.77;;;15.40;99.90;;;;;;5047101;28;20044;-74
2023/04/21 11:43:47;;;;;;;2.60;1.00;;;15.30;99.30;;;;;;5049516;28;20033;-74
2023/04/21 11:46:24;;;;;;;3.13;1.33;;;15.40;99.90;;;;;;5049317;28;20635;-74
2023/04/21 11:49:01;;;;;;;3.42;0.98;;;15.30;99.60;;;;;;5031575;28;20272;-72
2023/04/21 11:51:35;;;;;;;2.47;1.00;;;15.30;99.10;;;;;;5028945;28;20034;-72
2023/04/21 11:54:01;;;;;;;;;;;15.40;99.30;;;;;;5029120;28;20022;-72
2023/04/21 11:56:27;;;;;;;2.65;0.98;;;15.30;99.10;;;;;;5026611;28;19955;-72
2023/04/21 11:58:52;;;;;;;1.95;1.27;;;15.30;99.30;;;;;;5024617;28;20358;-72
2023/04/21 12:01:19;;;;;;;3.55;1.10;;;15.30;99.20;;;;;;5045017;28;20044;-72
2023/04/21 12:03:55;;;;;;;1.92;0.88;;;15.40;99.90;;;;;;5044368;28;20360;-72
2023/04/21 12:06:28;;;;;;;1.88;1.05;;;15.40;99.80;;;;;;5045118;28;20040;-72
2023/04/21 12:08:56;;;;;;;4.45;1.05;;;15.50;99.10;;;;;;5044739;28;20045;-72
2023/04/21 12:11:23;;;;;;;2.45;1.27;;;15.50;98.70;;;;;;5045160;28;20458;-72
2023/04/21 12:13:49;;;;;;;1.52;0.90;;;15.60;98.90;;;;;;5044919;28;20021;-72
2023/04/21 12:16:15;;;;;;;2.25;1.08;;;15.80;98.70;;;;;;5044940;28;20021;-71
2023/04/21 12:18:42;;;;;;;1.65;0.90;;;15.80;98.60;;;;;;5044827;28;20127;-72
2023/04/21 12:21:07;;;;;;;4.25;1.50;;;16.00;99.30;;;;;;5045114;28;20029;-72
2023/04/21 12:23:33;;;;;;;2.47;1.20;;;16.10;99.50;;;;;;5044827;28;20390;-72
2023/04/21 12:26:00;;;;;;;2.22;1.20;;;16.00;98.90;;;;;;5045040;28;20037;-71
2023/04/21 12:28:25;;;;;;;2.45;0.90;;;16.20;99.00;;;;;;5044890;28;20109;-72
2023/04/21 12:30:51;;;;;;;1.77;0.90;;;16.40;98.30;;;;;;5042050;28;20031;-72
2023/04/21 12:33:17;;;;;;;2.05;0.73;;;16.30;98.70;;;;;;5044731;28;20020;-74
2023/04/21 12:35:42;;;;;;;2.15;1.08;;;16.50;98.80;;;;;;5044715;28;20052;-72
2023/04/21 12:38:08;;;;;;;1.17;0.65;;;16.60;99.10;;;;;;5044991;28;20028;-72
2023/04/21 12:40:34;;;;;;;1.58;0.77;;;16.60;98.10;;;;;;5044451;28;20032;-71
2023/04/21 12:43:00;;;;;;;0.95;0.50;;;16.50;98.10;;;;;;5044692;28;20029;-72
2023/04/21 12:45:26;;;;;;;1.10;0.60;;;16.60;97.50;;;;;;5044588;28;20572;-72
2023/04/21 12:47:51;;;;;;;1.75;0.55;;;16.60;96.70;;;;;;5044754;28;20423;-72